KAHQ

Wahoo Municipal Airport

Wahoo, Nebraska, USA

KAHQ 110855Z AUTO 25011KT 10SM CLR 06/M08 A2997 RMK AO2 T00561078

Observed Flight Rules
Dec-11 @ 08:55 UTC (20 minutes ago) Visual Flight Rules
Wind Visibility Clouds
250° at 11 knots 10 miles
  • Clear skies
Temperatures Readings
Current 6°C / 43°F
Dewpoint -8°C / 18°F
Humidity 36%
Altimeter 29.97" Hg
Pressure 1015 hPa
Elevation 374
Observed Flight Rules
Dec-11 @ 08:55 UTC
(20 minutes ago)
VFR
Wind Visibility
250° at 11 knots 10 miles
Clouds
  • Clear skies
Temperature Dewpoint
6°C / 43°F -8°C / 18°F
Humidity Altimeter Pressure
36% 29.97" Hg 1015 hPa